sensor_id;sensor_type;location;lat;lon;timestamp;P1;durP1;ratioP1;P2;durP2;ratioP2
6809;SDS011;3443;48.812;9.112;2022-07-23T00:02:21;3.10;;;2.92;;
6809;SDS011;3443;48.812;9.112;2022-07-23T00:04:47;3.20;;;2.97;;
6809;SDS011;3443;48.812;9.112;2022-07-23T00:07:13;2.70;;;2.60;;
6809;SDS011;3443;48.812;9.112;2022-07-23T00:09:39;3.08;;;2.92;;
6809;SDS011;3443;48.812;9.112;2022-07-23T00:12:05;3.33;;;3.17;;
6809;SDS011;3443;48.812;9.112;2022-07-23T00:14:31;3.25;;;3.05;;
6809;SDS011;3443;48.812;9.112;2022-07-23T00:16:57;2.83;;;2.65;;
6809;SDS011;3443;48.812;9.112;2022-07-23T00:19:23;3.03;;;2.83;;
6809;SDS011;3443;48.812;9.112;2022-07-23T00:21:49;3.10;;;2.90;;
6809;SDS011;3443;48.812;9.112;2022-07-23T00:24:16;4.28;;;2.90;;
6809;SDS011;3443;48.812;9.112;2022-07-23T00:26:42;3.50;;;2.90;;
6809;SDS011;3443;48.812;9.112;2022-07-23T00:29:08;2.90;;;2.75;;
6809;SDS011;3443;48.812;9.112;2022-07-23T00:31:34;3.17;;;2.97;;
6809;SDS011;3443;48.812;9.112;2022-07-23T00:34:00;3.05;;;2.85;;
6809;SDS011;3443;48.812;9.112;2022-07-23T00:36:26;3.35;;;3.15;;
6809;SDS011;3443;48.812;9.112;2022-07-23T00:38:53;2.92;;;2.75;;
6809;SDS011;3443;48.812;9.112;2022-07-23T00:41:19;3.40;;;2.90;;
6809;SDS011;3443;48.812;9.112;2022-07-23T00:43:45;3.00;;;2.88;;
6809;SDS011;3443;48.812;9.112;2022-07-23T00:46:11;3.15;;;2.95;;
6809;SDS011;3443;48.812;9.112;2022-07-23T00:48:37;2.92;;;2.83;;
6809;SDS011;3443;48.812;9.112;2022-07-23T00:51:03;3.30;;;3.10;;
6809;SDS011;3443;48.812;9.112;2022-07-23T00:53:30;5.00;;;3.03;;
6809;SDS011;3443;48.812;9.112;2022-07-23T00:55:56;3.20;;;3.00;;
6809;SDS011;3443;48.812;9.112;2022-07-23T00:58:24;2.97;;;2.88;;
6809;SDS011;3443;48.812;9.112;2022-07-23T01:00:50;3.30;;;3.10;;
6809;SDS011;3443;48.812;9.112;2022-07-23T01:03:16;3.25;;;3.05;;
6809;SDS011;3443;48.812;9.112;2022-07-23T01:05:42;2.70;;;2.60;;
6809;SDS011;3443;48.812;9.112;2022-07-23T01:08:08;2.95;;;2.85;;
6809;SDS011;3443;48.812;9.112;2022-07-23T01:10:34;2.78;;;2.67;;
6809;SDS011;3443;48.812;9.112;2022-07-23T01:13:04;3.08;;;2.97;;
6809;SDS011;3443;48.812;9.112;2022-07-23T01:15:31;3.15;;;2.88;;
6809;SDS011;3443;48.812;9.112;2022-07-23T01:17:57;2.80;;;2.70;;
6809;SDS011;3443;48.812;9.112;2022-07-23T01:20:23;2.75;;;2.65;;
6809;SDS011;3443;48.812;9.112;2022-07-23T01:22:50;3.20;;;2.97;;
6809;SDS011;3443;48.812;9.112;2022-07-23T01:25:17;2.92;;;2.83;;
6809;SDS011;3443;48.812;9.112;2022-07-23T01:27:43;3.47;;;3.17;;
6809;SDS011;3443;48.812;9.112;2022-07-23T01:30:10;2.60;;;2.50;;
6809;SDS011;3443;48.812;9.112;2022-07-23T01:32:36;3.03;;;2.92;;
6809;SDS011;3443;48.812;9.112;2022-07-23T01:35:02;3.08;;;2.97;;
6809;SDS011;3443;48.812;9.112;2022-07-23T01:37:28;3.10;;;2.80;;
6809;SDS011;3443;48.812;9.112;2022-07-23T01:39:55;2.63;;;2.50;;
6809;SDS011;3443;48.812;9.112;2022-07-23T01:42:21;4.53;;;2.90;;
6809;SDS011;3443;48.812;9.112;2022-07-23T01:44:48;2.85;;;2.75;;
6809;SDS011;3443;48.812;9.112;2022-07-23T01:47:14;2.63;;;2.42;;
6809;SDS011;3443;48.812;9.112;2022-07-23T01:49:40;2.88;;;2.78;;
6809;SDS011;3443;48.812;9.112;2022-07-23T01:52:06;3.30;;;3.17;;
6809;SDS011;3443;48.812;9.112;2022-07-23T01:54:36;4.10;;;3.90;;
6809;SDS011;3443;48.812;9.112;2022-07-23T01:57:03;3.40;;;3.28;;
6809;SDS011;3443;48.812;9.112;2022-07-23T01:59:30;3.40;;;3.20;;
6809;SDS011;3443;48.812;9.112;2022-07-23T02:01:56;3.38;;;3.17;;
6809;SDS011;3443;48.812;9.112;2022-07-23T02:04:22;3.50;;;2.80;;
6809;SDS011;3443;48.812;9.112;2022-07-23T02:06:49;3.40;;;3.20;;
6809;SDS011;3443;48.812;9.112;2022-07-23T02:09:15;2.50;;;2.40;;
6809;SDS011;3443;48.812;9.112;2022-07-23T02:11:41;2.90;;;2.80;;
6809;SDS011;3443;48.812;9.112;2022-07-23T02:14:08;3.10;;;2.80;;
6809;SDS011;3443;48.812;9.112;2022-07-23T02:16:34;3.15;;;2.92;;
6809;SDS011;3443;48.812;9.112;2022-07-23T02:19:00;2.90;;;2.70;;
6809;SDS011;3443;48.812;9.112;2022-07-23T02:21:26;3.17;;;2.92;;
6809;SDS011;3443;48.812;9.112;2022-07-23T02:23:52;3.33;;;3.10;;
6809;SDS011;3443;48.812;9.112;2022-07-23T02:26:18;2.85;;;2.78;;
6809;SDS011;3443;48.812;9.112;2022-07-23T02:28:44;3.33;;;3.13;;
6809;SDS011;3443;48.812;9.112;2022-07-23T02:31:10;2.97;;;2.83;;
6809;SDS011;3443;48.812;9.112;2022-07-23T02:33:36;3.22;;;2.97;;
6809;SDS011;3443;48.812;9.112;2022-07-23T02:36:03;3.30;;;3.10;;
6809;SDS011;3443;48.812;9.112;2022-07-23T02:38:30;3.15;;;2.97;;
6809;SDS011;3443;48.812;9.112;2022-07-23T02:40:56;3.10;;;3.00;;
6809;SDS011;3443;48.812;9.112;2022-07-23T02:43:22;3.30;;;3.00;;
6809;SDS011;3443;48.812;9.112;2022-07-23T02:45:50;3.25;;;3.05;;
6809;SDS011;3443;48.812;9.112;2022-07-23T02:48:17;3.13;;;2.92;;
6809;SDS011;3443;48.812;9.112;2022-07-23T02:50:43;3.45;;;3.25;;
6809;SDS011;3443;48.812;9.112;2022-07-23T02:53:09;3.50;;;3.20;;
6809;SDS011;3443;48.812;9.112;2022-07-23T02:55:35;3.55;;;3.35;;
6809;SDS011;3443;48.812;9.112;2022-07-23T02:58:01;3.60;;;3.40;;
6809;SDS011;3443;48.812;9.112;2022-07-23T03:00:27;3.70;;;3.40;;
6809;SDS011;3443;48.812;9.112;2022-07-23T03:02:53;3.40;;;3.30;;
6809;SDS011;3443;48.812;9.112;2022-07-23T03:05:20;3.42;;;3.20;;
6809;SDS011;3443;48.812;9.112;2022-07-23T03:07:46;3.47;;;3.17;;
6809;SDS011;3443;48.812;9.112;2022-07-23T03:10:12;3.15;;;2.97;;
6809;SDS011;3443;48.812;9.112;2022-07-23T03:12:39;3.47;;;3.28;;
6809;SDS011;3443;48.812;9.112;2022-07-23T03:15:05;2.67;;;2.58;;
6809;SDS011;3443;48.812;9.112;2022-07-23T03:17:31;3.17;;;3.03;;
6809;SDS011;3443;48.812;9.112;2022-07-23T03:19:57;3.40;;;3.03;;
6809;SDS011;3443;48.812;9.112;2022-07-23T03:22:23;3.10;;;3.00;;
6809;SDS011;3443;48.812;9.112;2022-07-23T03:24:49;3.35;;;3.08;;
6809;SDS011;3443;48.812;9.112;2022-07-23T03:27:18;2.90;;;2.80;;
6809;SDS011;3443;48.812;9.112;2022-07-23T03:29:44;3.08;;;2.90;;
6809;SDS011;3443;48.812;9.112;2022-07-23T03:32:10;3.10;;;2.92;;
6809;SDS011;3443;48.812;9.112;2022-07-23T03:34:37;2.75;;;2.65;;
6809;SDS011;3443;48.812;9.112;2022-07-23T03:37:03;3.05;;;2.95;;
6809;SDS011;3443;48.812;9.112;2022-07-23T03:39:29;3.28;;;3.17;;
6809;SDS011;3443;48.812;9.112;2022-07-23T03:41:55;3.25;;;3.00;;
6809;SDS011;3443;48.812;9.112;2022-07-23T03:44:21;3.25;;;3.05;;
6809;SDS011;3443;48.812;9.112;2022-07-23T03:46:47;2.80;;;2.65;;
6809;SDS011;3443;48.812;9.112;2022-07-23T03:49:13;2.95;;;2.85;;
6809;SDS011;3443;48.812;9.112;2022-07-23T03:51:39;3.40;;;3.20;;
6809;SDS011;3443;48.812;9.112;2022-07-23T03:54:06;3.10;;;2.90;;
6809;SDS011;3443;48.812;9.112;2022-07-23T03:56:32;3.30;;;3.10;;
6809;SDS011;3443;48.812;9.112;2022-07-23T03:58:58;3.28;;;3.17;;
6809;SDS011;3443;48.812;9.112;2022-07-23T04:01:24;3.53;;;3.33;;
6809;SDS011;3443;48.812;9.112;2022-07-23T04:03:50;3.42;;;3.20;;
6809;SDS011;3443;48.812;9.112;2022-07-23T04:06:17;2.90;;;2.80;;
6809;SDS011;3443;48.812;9.112;2022-07-23T04:08:43;3.00;;;2.90;;
6809;SDS011;3443;48.812;9.112;2022-07-23T04:11:09;3.58;;;3.38;;
6809;SDS011;3443;48.812;9.112;2022-07-23T04:13:35;3.47;;;2.90;;
6809;SDS011;3443;48.812;9.112;2022-07-23T04:16:01;3.35;;;3.15;;
6809;SDS011;3443;48.812;9.112;2022-07-23T04:18:28;3.95;;;3.63;;
6809;SDS011;3443;48.812;9.112;2022-07-23T04:20:55;3.75;;;3.50;;
6809;SDS011;3443;48.812;9.112;2022-07-23T04:23:21;3.33;;;3.13;;
6809;SDS011;3443;48.812;9.112;2022-07-23T04:25:47;3.55;;;3.22;;
6809;SDS011;3443;48.812;9.112;2022-07-23T04:28:13;3.42;;;3.22;;
6809;SDS011;3443;48.812;9.112;2022-07-23T04:30:39;3.38;;;3.13;;
6809;SDS011;3443;48.812;9.112;2022-07-23T04:33:05;3.83;;;3.25;;
6809;SDS011;3443;48.812;9.112;2022-07-23T04:35:34;4.00;;;3.70;;
6809;SDS011;3443;48.812;9.112;2022-07-23T04:38:00;3.45;;;3.22;;
6809;SDS011;3443;48.812;9.112;2022-07-23T04:40:27;3.30;;;3.10;;
6809;SDS011;3443;48.812;9.112;2022-07-23T04:42:53;3.38;;;3.17;;
6809;SDS011;3443;48.812;9.112;2022-07-23T04:45:19;2.95;;;2.85;;
6809;SDS011;3443;48.812;9.112;2022-07-23T04:47:45;3.40;;;3.30;;
6809;SDS011;3443;48.812;9.112;2022-07-23T04:50:11;3.40;;;3.20;;
6809;SDS011;3443;48.812;9.112;2022-07-23T04:52:39;3.28;;;3.17;;
6809;SDS011;3443;48.812;9.112;2022-07-23T04:55:05;3.50;;;3.25;;
6809;SDS011;3443;48.812;9.112;2022-07-23T04:57:31;2.88;;;2.78;;
6809;SDS011;3443;48.812;9.112;2022-07-23T04:59:57;3.63;;;3.08;;
6809;SDS011;3443;48.812;9.112;2022-07-23T05:02:23;3.60;;;3.40;;
6809;SDS011;3443;48.812;9.112;2022-07-23T05:04:49;2.97;;;2.88;;
6809;SDS011;3443;48.812;9.112;2022-07-23T05:07:15;3.60;;;3.35;;
6809;SDS011;3443;48.812;9.112;2022-07-23T05:09:41;3.30;;;3.08;;
6809;SDS011;3443;48.812;9.112;2022-07-23T05:12:08;3.67;;;3.47;;
6809;SDS011;3443;48.812;9.112;2022-07-23T05:14:34;3.90;;;3.60;;
6809;SDS011;3443;48.812;9.112;2022-07-23T05:17:00;3.80;;;3.60;;
6809;SDS011;3443;48.812;9.112;2022-07-23T05:19:26;3.53;;;3.33;;
6809;SDS011;3443;48.812;9.112;2022-07-23T05:21:52;3.88;;;3.67;;
6809;SDS011;3443;48.812;9.112;2022-07-23T05:24:18;4.05;;;3.63;;
6809;SDS011;3443;48.812;9.112;2022-07-23T05:26:44;3.45;;;3.25;;
6809;SDS011;3443;48.812;9.112;2022-07-23T05:29:10;3.45;;;3.25;;
6809;SDS011;3443;48.812;9.112;2022-07-23T05:31:36;3.17;;;2.97;;
6809;SDS011;3443;48.812;9.112;2022-07-23T05:34:02;3.70;;;3.40;;
6809;SDS011;3443;48.812;9.112;2022-07-23T05:36:30;3.53;;;3.22;;
6809;SDS011;3443;48.812;9.112;2022-07-23T05:38:56;3.35;;;3.15;;
6809;SDS011;3443;48.812;9.112;2022-07-23T05:41:22;3.85;;;3.42;;
6809;SDS011;3443;48.812;9.112;2022-07-23T05:43:55;3.70;;;3.50;;
6809;SDS011;3443;48.812;9.112;2022-07-23T05:46:21;3.67;;;3.17;;
6809;SDS011;3443;48.812;9.112;2022-07-23T05:48:47;3.90;;;3.55;;
6809;SDS011;3443;48.812;9.112;2022-07-23T05:51:21;3.58;;;3.38;;
6809;SDS011;3443;48.812;9.112;2022-07-23T05:53:47;3.05;;;2.95;;
6809;SDS011;3443;48.812;9.112;2022-07-23T05:56:14;3.40;;;3.30;;
6809;SDS011;3443;48.812;9.112;2022-07-23T05:58:40;4.07;;;3.13;;
6809;SDS011;3443;48.812;9.112;2022-07-23T06:01:06;3.28;;;3.17;;
6809;SDS011;3443;48.812;9.112;2022-07-23T06:03:32;8.73;;;3.80;;
6809;SDS011;3443;48.812;9.112;2022-07-23T06:05:58;4.00;;;3.67;;
6809;SDS011;3443;48.812;9.112;2022-07-23T06:08:24;3.40;;;3.20;;
6809;SDS011;3443;48.812;9.112;2022-07-23T06:10:50;3.45;;;3.25;;
6809;SDS011;3443;48.812;9.112;2022-07-23T06:13:19;5.50;;;3.53;;
6809;SDS011;3443;48.812;9.112;2022-07-23T06:15:45;3.78;;;3.58;;
6809;SDS011;3443;48.812;9.112;2022-07-23T06:18:12;4.28;;;3.92;;
6809;SDS011;3443;48.812;9.112;2022-07-23T06:20:38;3.70;;;3.50;;
6809;SDS011;3443;48.812;9.112;2022-07-23T06:23:04;4.03;;;3.75;;
6809;SDS011;3443;48.812;9.112;2022-07-23T06:25:30;3.90;;;3.70;;
6809;SDS011;3443;48.812;9.112;2022-07-23T06:27:56;4.30;;;4.00;;
6809;SDS011;3443;48.812;9.112;2022-07-23T06:30:22;4.28;;;3.97;;
6809;SDS011;3443;48.812;9.112;2022-07-23T06:32:48;3.80;;;3.60;;
6809;SDS011;3443;48.812;9.112;2022-07-23T06:35:15;3.75;;;3.45;;
6809;SDS011;3443;48.812;9.112;2022-07-23T06:37:41;3.47;;;3.28;;
6809;SDS011;3443;48.812;9.112;2022-07-23T06:40:07;3.72;;;3.50;;
6809;SDS011;3443;48.812;9.112;2022-07-23T06:42:33;4.00;;;3.70;;
6809;SDS011;3443;48.812;9.112;2022-07-23T06:45:02;3.88;;;3.55;;
6809;SDS011;3443;48.812;9.112;2022-07-23T06:47:28;3.75;;;3.45;;
6809;SDS011;3443;48.812;9.112;2022-07-23T06:49:54;3.72;;;3.53;;
6809;SDS011;3443;48.812;9.112;2022-07-23T06:52:20;3.80;;;3.50;;
6809;SDS011;3443;48.812;9.112;2022-07-23T06:54:46;3.58;;;3.38;;
6809;SDS011;3443;48.812;9.112;2022-07-23T06:57:13;4.00;;;3.40;;
6809;SDS011;3443;48.812;9.112;2022-07-23T06:59:39;3.90;;;3.60;;
6809;SDS011;3443;48.812;9.112;2022-07-23T07:02:05;4.40;;;3.83;;
6809;SDS011;3443;48.812;9.112;2022-07-23T07:04:32;4.50;;;3.90;;
6809;SDS011;3443;48.812;9.112;2022-07-23T07:06:58;4.10;;;3.80;;
6809;SDS011;3443;48.812;9.112;2022-07-23T07:09:24;4.22;;;3.92;;
6809;SDS011;3443;48.812;9.112;2022-07-23T07:11:50;4.10;;;3.80;;
6809;SDS011;3443;48.812;9.112;2022-07-23T07:14:16;3.78;;;3.47;;
6809;SDS011;3443;48.812;9.112;2022-07-23T07:16:42;4.35;;;4.00;;
6809;SDS011;3443;48.812;9.112;2022-07-23T07:19:08;3.90;;;3.70;;
6809;SDS011;3443;48.812;9.112;2022-07-23T07:21:34;4.43;;;4.13;;
6809;SDS011;3443;48.812;9.112;2022-07-23T07:24:00;5.32;;;4.10;;
6809;SDS011;3443;48.812;9.112;2022-07-23T07:26:26;7.00;;;4.38;;
6809;SDS011;3443;48.812;9.112;2022-07-23T07:28:52;4.97;;;4.57;;
6809;SDS011;3443;48.812;9.112;2022-07-23T07:31:18;4.75;;;4.45;;
6809;SDS011;3443;48.812;9.112;2022-07-23T07:33:44;4.10;;;3.85;;
6809;SDS011;3443;48.812;9.112;2022-07-23T07:36:11;5.45;;;4.15;;
6809;SDS011;3443;48.812;9.112;2022-07-23T07:38:37;4.13;;;3.92;;
6809;SDS011;3443;48.812;9.112;2022-07-23T07:41:03;4.63;;;4.22;;
6809;SDS011;3443;48.812;9.112;2022-07-23T07:43:29;4.90;;;4.50;;
6809;SDS011;3443;48.812;9.112;2022-07-23T07:45:55;4.25;;;4.05;;
6809;SDS011;3443;48.812;9.112;2022-07-23T07:48:21;4.88;;;4.47;;
6809;SDS011;3443;48.812;9.112;2022-07-23T07:50:47;4.30;;;4.10;;
6809;SDS011;3443;48.812;9.112;2022-07-23T07:53:13;5.03;;;4.68;;
6809;SDS011;3443;48.812;9.112;2022-07-23T07:55:39;5.00;;;4.63;;
6809;SDS011;3443;48.812;9.112;2022-07-23T07:58:05;4.18;;;3.88;;
6809;SDS011;3443;48.812;9.112;2022-07-23T08:00:31;4.20;;;3.90;;
6809;SDS011;3443;48.812;9.112;2022-07-23T08:02:58;4.50;;;4.05;;
6809;SDS011;3443;48.812;9.112;2022-07-23T08:05:25;4.82;;;4.43;;
6809;SDS011;3443;48.812;9.112;2022-07-23T08:07:52;4.13;;;3.92;;
6809;SDS011;3443;48.812;9.112;2022-07-23T08:10:18;3.80;;;3.60;;
6809;SDS011;3443;48.812;9.112;2022-07-23T08:12:46;4.20;;;3.78;;
6809;SDS011;3443;48.812;9.112;2022-07-23T08:15:13;3.75;;;3.55;;
6809;SDS011;3443;48.812;9.112;2022-07-23T08:17:40;4.20;;;3.90;;
6809;SDS011;3443;48.812;9.112;2022-07-23T08:20:07;3.95;;;3.65;;
6809;SDS011;3443;48.812;9.112;2022-07-23T08:22:43;4.25;;;4.00;;
6809;SDS011;3443;48.812;9.112;2022-07-23T08:25:09;4.20;;;3.90;;
6809;SDS011;3443;48.812;9.112;2022-07-23T08:27:35;4.40;;;4.03;;
6809;SDS011;3443;48.812;9.112;2022-07-23T08:30:02;3.95;;;3.63;;
6809;SDS011;3443;48.812;9.112;2022-07-23T08:32:28;3.60;;;3.40;;
6809;SDS011;3443;48.812;9.112;2022-07-23T08:34:54;3.83;;;3.55;;
6809;SDS011;3443;48.812;9.112;2022-07-23T08:37:20;3.72;;;3.53;;
6809;SDS011;3443;48.812;9.112;2022-07-23T08:39:46;3.58;;;3.33;;
6809;SDS011;3443;48.812;9.112;2022-07-23T08:42:13;3.70;;;3.50;;
6809;SDS011;3443;48.812;9.112;2022-07-23T08:44:44;4.45;;;3.33;;
6809;SDS011;3443;48.812;9.112;2022-07-23T08:47:11;3.70;;;3.50;;
6809;SDS011;3443;48.812;9.112;2022-07-23T08:49:38;3.40;;;3.30;;
6809;SDS011;3443;48.812;9.112;2022-07-23T08:52:04;3.45;;;3.30;;
6809;SDS011;3443;48.812;9.112;2022-07-23T08:54:31;3.72;;;3.40;;
6809;SDS011;3443;48.812;9.112;2022-07-23T08:56:57;3.30;;;3.10;;
6809;SDS011;3443;48.812;9.112;2022-07-23T08:59:23;3.25;;;3.10;;
6809;SDS011;3443;48.812;9.112;2022-07-23T09:01:51;3.70;;;3.40;;
6809;SDS011;3443;48.812;9.112;2022-07-23T09:04:17;3.63;;;3.53;;
6809;SDS011;3443;48.812;9.112;2022-07-23T09:06:44;3.83;;;3.53;;
6809;SDS011;3443;48.812;9.112;2022-07-23T09:09:17;3.28;;;3.15;;
6809;SDS011;3443;48.812;9.112;2022-07-23T09:11:49;4.03;;;3.72;;
6809;SDS011;3443;48.812;9.112;2022-07-23T09:14:37;3.92;;;3.63;;
6809;SDS011;3443;48.812;9.112;2022-07-23T09:17:14;4.53;;;3.92;;
6809;SDS011;3443;48.812;9.112;2022-07-23T09:19:41;3.97;;;3.67;;
6809;SDS011;3443;48.812;9.112;2022-07-23T09:27:44;3.60;;;3.40;;
6809;SDS011;3443;48.812;9.112;2022-07-23T09:30:11;3.40;;;3.30;;
6809;SDS011;3443;48.812;9.112;2022-07-23T09:32:37;3.72;;;3.50;;
6809;SDS011;3443;48.812;9.112;2022-07-23T09:35:04;3.22;;;3.13;;
6809;SDS011;3443;48.812;9.112;2022-07-23T09:37:30;3.53;;;3.33;;
6809;SDS011;3443;48.812;9.112;2022-07-23T09:40:07;3.10;;;3.00;;
6809;SDS011;3443;48.812;9.112;2022-07-23T09:42:34;3.72;;;3.47;;
6809;SDS011;3443;48.812;9.112;2022-07-23T09:45:03;3.95;;;3.75;;
6809;SDS011;3443;48.812;9.112;2022-07-23T09:47:32;3.83;;;3.47;;
6809;SDS011;3443;48.812;9.112;2022-07-23T09:52:29;3.42;;;3.22;;
6809;SDS011;3443;48.812;9.112;2022-07-23T09:55:02;3.65;;;3.35;;
6809;SDS011;3443;48.812;9.112;2022-07-23T09:57:29;4.00;;;3.70;;
6809;SDS011;3443;48.812;9.112;2022-07-23T09:59:57;4.10;;;3.80;;
6809;SDS011;3443;48.812;9.112;2022-07-23T10:02:27;3.47;;;3.28;;
6809;SDS011;3443;48.812;9.112;2022-07-23T10:04:54;3.65;;;3.35;;
6809;SDS011;3443;48.812;9.112;2022-07-23T10:07:21;3.65;;;3.45;;
6809;SDS011;3443;48.812;9.112;2022-07-23T10:09:48;3.47;;;3.30;;
6809;SDS011;3443;48.812;9.112;2022-07-23T10:12:15;3.45;;;3.25;;
6809;SDS011;3443;48.812;9.112;2022-07-23T10:14:47;3.47;;;3.38;;
6809;SDS011;3443;48.812;9.112;2022-07-23T10:17:14;3.03;;;2.92;;
6809;SDS011;3443;48.812;9.112;2022-07-23T10:19:41;3.20;;;3.10;;
6809;SDS011;3443;48.812;9.112;2022-07-23T10:22:15;3.67;;;3.47;;
6809;SDS011;3443;48.812;9.112;2022-07-23T10:30:22;3.58;;;3.38;;
6809;SDS011;3443;48.812;9.112;2022-07-23T10:35:38;3.50;;;3.30;;
6809;SDS011;3443;48.812;9.112;2022-07-23T10:38:10;3.28;;;3.00;;
6809;SDS011;3443;48.812;9.112;2022-07-23T10:40:37;3.47;;;3.25;;
6809;SDS011;3443;48.812;9.112;2022-07-23T10:43:15;3.60;;;3.50;;
6809;SDS011;3443;48.812;9.112;2022-07-23T10:45:42;2.92;;;2.83;;
6809;SDS011;3443;48.812;9.112;2022-07-23T10:48:12;3.83;;;3.42;;
6809;SDS011;3443;48.812;9.112;2022-07-23T10:50:39;3.30;;;3.10;;
6809;SDS011;3443;48.812;9.112;2022-07-23T10:57:59;3.55;;;3.35;;
6809;SDS011;3443;48.812;9.112;2022-07-23T11:00:26;4.43;;;3.65;;
6809;SDS011;3443;48.812;9.112;2022-07-23T11:02:57;3.85;;;3.55;;
6809;SDS011;3443;48.812;9.112;2022-07-23T11:05:39;3.55;;;3.40;;
6809;SDS011;3443;48.812;9.112;2022-07-23T11:10:34;3.33;;;3.20;;
6809;SDS011;3443;48.812;9.112;2022-07-23T11:24:08;3.88;;;3.67;;
6809;SDS011;3443;48.812;9.112;2022-07-23T11:34:31;4.57;;;4.18;;
6809;SDS011;3443;48.812;9.112;2022-07-23T11:36:58;3.85;;;3.65;;
6809;SDS011;3443;48.812;9.112;2022-07-23T11:39:25;4.25;;;4.05;;
6809;SDS011;3443;48.812;9.112;2022-07-23T11:41:52;3.70;;;3.50;;
6809;SDS011;3443;48.812;9.112;2022-07-23T11:44:28;3.90;;;3.70;;
6809;SDS011;3443;48.812;9.112;2022-07-23T11:46:58;3.83;;;3.67;;
6809;SDS011;3443;48.812;9.112;2022-07-23T11:49:25;4.03;;;3.83;;
6809;SDS011;3443;48.812;9.112;2022-07-23T11:52:07;4.35;;;4.05;;
6809;SDS011;3443;48.812;9.112;2022-07-23T11:54:34;3.95;;;3.75;;
6809;SDS011;3443;48.812;9.112;2022-07-23T11:57:01;4.50;;;4.20;;
6809;SDS011;3443;48.812;9.112;2022-07-23T11:59:29;3.58;;;3.47;;
6809;SDS011;3443;48.812;9.112;2022-07-23T12:01:59;3.80;;;3.60;;
6809;SDS011;3443;48.812;9.112;2022-07-23T12:04:39;5.38;;;4.38;;
6809;SDS011;3443;48.812;9.112;2022-07-23T12:09:50;4.60;;;4.25;;
6809;SDS011;3443;48.812;9.112;2022-07-23T12:12:16;4.57;;;4.28;;
6809;SDS011;3443;48.812;9.112;2022-07-23T12:14:49;4.40;;;4.10;;
6809;SDS011;3443;48.812;9.112;2022-07-23T12:17:16;3.75;;;3.55;;
6809;SDS011;3443;48.812;9.112;2022-07-23T12:19:42;4.40;;;4.00;;
6809;SDS011;3443;48.812;9.112;2022-07-23T12:22:09;4.10;;;3.80;;
6809;SDS011;3443;48.812;9.112;2022-07-23T12:27:20;4.63;;;4.22;;
6809;SDS011;3443;48.812;9.112;2022-07-23T12:29:47;4.15;;;3.95;;
6809;SDS011;3443;48.812;9.112;2022-07-23T12:32:17;4.40;;;4.10;;
6809;SDS011;3443;48.812;9.112;2022-07-23T12:34:43;4.00;;;3.72;;
6809;SDS011;3443;48.812;9.112;2022-07-23T12:37:24;4.38;;;4.15;;
6809;SDS011;3443;48.812;9.112;2022-07-23T12:39:51;4.40;;;4.10;;
6809;SDS011;3443;48.812;9.112;2022-07-23T12:42:17;4.13;;;3.90;;
6809;SDS011;3443;48.812;9.112;2022-07-23T12:45:02;5.85;;;4.15;;
6809;SDS011;3443;48.812;9.112;2022-07-23T12:47:28;4.22;;;3.95;;
6809;SDS011;3443;48.812;9.112;2022-07-23T12:49:54;3.97;;;3.78;;
6809;SDS011;3443;48.812;9.112;2022-07-23T12:52:23;4.00;;;3.80;;
6809;SDS011;3443;48.812;9.112;2022-07-23T12:54:49;4.40;;;4.10;;
6809;SDS011;3443;48.812;9.112;2022-07-23T12:57:15;4.72;;;4.35;;
6809;SDS011;3443;48.812;9.112;2022-07-23T12:59:41;4.38;;;3.97;;
6809;SDS011;3443;48.812;9.112;2022-07-23T13:02:09;4.25;;;3.70;;
6809;SDS011;3443;48.812;9.112;2022-07-23T13:04:36;4.18;;;3.88;;
6809;SDS011;3443;48.812;9.112;2022-07-23T13:07:02;3.88;;;3.67;;
6809;SDS011;3443;48.812;9.112;2022-07-23T13:09:28;4.72;;;4.43;;
6809;SDS011;3443;48.812;9.112;2022-07-23T13:11:55;3.80;;;3.60;;
6809;SDS011;3443;48.812;9.112;2022-07-23T13:14:22;4.40;;;4.10;;
6809;SDS011;3443;48.812;9.112;2022-07-23T13:16:51;4.22;;;3.88;;
6809;SDS011;3443;48.812;9.112;2022-07-23T13:19:18;4.22;;;4.05;;
6809;SDS011;3443;48.812;9.112;2022-07-23T13:21:47;3.88;;;3.58;;
6809;SDS011;3443;48.812;9.112;2022-07-23T13:24:16;4.10;;;3.75;;
6809;SDS011;3443;48.812;9.112;2022-07-23T13:26:42;5.00;;;4.70;;
6809;SDS011;3443;48.812;9.112;2022-07-23T13:29:09;5.03;;;4.50;;
6809;SDS011;3443;48.812;9.112;2022-07-23T13:31:35;4.72;;;4.53;;
6809;SDS011;3443;48.812;9.112;2022-07-23T13:34:04;4.57;;;4.28;;
6809;SDS011;3443;48.812;9.112;2022-07-23T13:36:30;4.72;;;4.38;;
6809;SDS011;3443;48.812;9.112;2022-07-23T13:38:56;4.22;;;4.03;;
6809;SDS011;3443;48.812;9.112;2022-07-23T13:41:22;4.07;;;3.83;;
6809;SDS011;3443;48.812;9.112;2022-07-23T13:43:49;4.47;;;4.25;;
6809;SDS011;3443;48.812;9.112;2022-07-23T13:46:15;4.50;;;4.20;;
6809;SDS011;3443;48.812;9.112;2022-07-23T13:48:41;5.10;;;4.65;;
6809;SDS011;3443;48.812;9.112;2022-07-23T13:51:07;5.03;;;4.72;;
6809;SDS011;3443;48.812;9.112;2022-07-23T13:53:33;4.68;;;4.30;;
6809;SDS011;3443;48.812;9.112;2022-07-23T13:55:59;5.00;;;4.60;;
6809;SDS011;3443;48.812;9.112;2022-07-23T13:58:28;4.82;;;4.53;;
6809;SDS011;3443;48.812;9.112;2022-07-23T14:00:56;4.57;;;4.28;;
6809;SDS011;3443;48.812;9.112;2022-07-23T14:03:22;5.22;;;4.82;;
6809;SDS011;3443;48.812;9.112;2022-07-23T14:05:49;4.95;;;4.60;;
6809;SDS011;3443;48.812;9.112;2022-07-23T14:08:15;4.32;;;4.10;;
6809;SDS011;3443;48.812;9.112;2022-07-23T14:10:41;4.40;;;4.10;;
6809;SDS011;3443;48.812;9.112;2022-07-23T14:13:07;4.20;;;3.80;;
6809;SDS011;3443;48.812;9.112;2022-07-23T14:15:33;3.97;;;3.67;;
6809;SDS011;3443;48.812;9.112;2022-07-23T14:17:59;3.97;;;3.78;;
6809;SDS011;3443;48.812;9.112;2022-07-23T14:20:26;4.38;;;4.07;;
6809;SDS011;3443;48.812;9.112;2022-07-23T14:22:52;4.15;;;3.83;;
6809;SDS011;3443;48.812;9.112;2022-07-23T14:25:22;4.32;;;4.03;;
6809;SDS011;3443;48.812;9.112;2022-07-23T14:27:49;5.47;;;4.10;;
6809;SDS011;3443;48.812;9.112;2022-07-23T14:30:15;4.50;;;4.20;;
6809;SDS011;3443;48.812;9.112;2022-07-23T14:32:41;4.78;;;4.30;;
6809;SDS011;3443;48.812;9.112;2022-07-23T14:35:07;4.30;;;4.00;;
6809;SDS011;3443;48.812;9.112;2022-07-23T14:37:34;5.85;;;5.30;;
6809;SDS011;3443;48.812;9.112;2022-07-23T14:40:00;4.22;;;4.03;;
6809;SDS011;3443;48.812;9.112;2022-07-23T14:42:26;4.07;;;3.88;;
6809;SDS011;3443;48.812;9.112;2022-07-23T14:44:52;4.10;;;3.90;;
6809;SDS011;3443;48.812;9.112;2022-07-23T14:47:18;4.18;;;3.80;;
6809;SDS011;3443;48.812;9.112;2022-07-23T14:49:44;4.75;;;4.35;;
6809;SDS011;3443;48.812;9.112;2022-07-23T14:52:10;4.15;;;3.85;;
6809;SDS011;3443;48.812;9.112;2022-07-23T14:54:36;4.28;;;3.97;;
6809;SDS011;3443;48.812;9.112;2022-07-23T14:57:02;4.28;;;4.07;;
6809;SDS011;3443;48.812;9.112;2022-07-23T14:59:29;4.18;;;3.88;;
6809;SDS011;3443;48.812;9.112;2022-07-23T15:01:57;5.70;;;4.22;;
6809;SDS011;3443;48.812;9.112;2022-07-23T15:04:24;4.10;;;3.90;;
6809;SDS011;3443;48.812;9.112;2022-07-23T15:06:50;4.70;;;4.40;;
6809;SDS011;3443;48.812;9.112;2022-07-23T15:09:16;4.45;;;4.15;;
6809;SDS011;3443;48.812;9.112;2022-07-23T15:11:42;4.85;;;4.50;;
6809;SDS011;3443;48.812;9.112;2022-07-23T15:14:10;4.32;;;4.13;;
6809;SDS011;3443;48.812;9.112;2022-07-23T15:16:37;4.82;;;4.45;;
6809;SDS011;3443;48.812;9.112;2022-07-23T15:19:03;4.43;;;4.22;;
6809;SDS011;3443;48.812;9.112;2022-07-23T15:21:30;4.80;;;4.50;;
6809;SDS011;3443;48.812;9.112;2022-07-23T15:23:56;4.50;;;4.25;;
6809;SDS011;3443;48.812;9.112;2022-07-23T15:26:24;4.45;;;4.25;;
6809;SDS011;3443;48.812;9.112;2022-07-23T15:28:50;4.45;;;4.15;;
6809;SDS011;3443;48.812;9.112;2022-07-23T15:31:16;4.35;;;4.05;;
6809;SDS011;3443;48.812;9.112;2022-07-23T15:33:42;4.57;;;4.28;;
6809;SDS011;3443;48.812;9.112;2022-07-23T15:36:08;4.65;;;4.35;;
6809;SDS011;3443;48.812;9.112;2022-07-23T15:38:35;4.90;;;4.50;;
6809;SDS011;3443;48.812;9.112;2022-07-23T15:41:01;4.32;;;4.10;;
6809;SDS011;3443;48.812;9.112;2022-07-23T15:43:27;4.75;;;4.45;;
6809;SDS011;3443;48.812;9.112;2022-07-23T15:45:53;5.13;;;4.72;;
6809;SDS011;3443;48.812;9.112;2022-07-23T15:48:19;5.38;;;4.72;;
6809;SDS011;3443;48.812;9.112;2022-07-23T15:50:47;5.10;;;4.78;;
6809;SDS011;3443;48.812;9.112;2022-07-23T15:53:14;5.07;;;4.60;;
6809;SDS011;3443;48.812;9.112;2022-07-23T15:55:40;5.25;;;4.57;;
6809;SDS011;3443;48.812;9.112;2022-07-23T15:58:08;4.70;;;4.40;;
6809;SDS011;3443;48.812;9.112;2022-07-23T16:00:35;4.53;;;4.15;;
6809;SDS011;3443;48.812;9.112;2022-07-23T16:03:01;4.60;;;4.40;;